Time;durP1;ratioP1;P1;durP2;ratioP2;P2;SDS_P1;SDS_P2;PMS_P1;PMS_P2;Temp;Humidity;BMP_temperature;BMP_pressure;BME280_temperature;BME280_humidity;BME280_pressure;Samples;Min_cycle;Max_cycle;Signal;HPM_P1;HPM_P2
2021/11/30 00:01:52;;;;;;;3.40;2.17;;;3.40;99.90;;;3.96;100.00;97941.75;5035363;28;20945;-79
2021/11/30 00:04:23;;;;;;;3.33;1.63;;;3.40;99.90;;;3.94;100.00;97934.16;5044229;28;20483;-79
2021/11/30 00:06:52;;;;;;;6.60;1.97;;;3.40;99.90;;;3.94;100.00;97929.00;5029674;28;20466;-79
2021/11/30 00:12:12;;;;;;;5.13;1.97;;;3.20;99.90;;;3.85;100.00;97939.41;4984557;28;20463;-79
2021/11/30 00:14:43;;;;;;;1.70;1.60;;;3.30;99.90;;;3.84;100.00;97935.19;5024922;28;20521;-79
2021/11/30 00:17:14;;;;;;;3.37;1.63;;;3.30;99.90;;;3.84;100.00;97937.78;5021586;28;20494;-79
2021/11/30 00:19:44;;;;;;;2.17;1.80;;;3.30;99.90;;;3.83;100.00;97930.97;5025159;28;20506;-80
2021/11/30 00:22:17;;;;;;;1.70;1.60;;;3.40;99.90;;;3.81;100.00;97935.50;5032205;28;20456;-79
2021/11/30 00:24:46;;;;;;;3.97;1.90;;;3.30;99.90;;;3.75;100.00;97938.69;5033930;28;21209;-79
2021/11/30 00:27:17;;;;;;;2.10;1.90;;;3.30;99.90;;;3.76;100.00;97932.53;5029147;28;20508;-79
2021/11/30 00:29:46;;;;;;;6.10;1.57;;;3.30;99.90;;;3.74;100.00;97912.00;5039110;28;20441;-79
2021/11/30 00:32:15;;;;;;;10.40;2.27;;;3.30;99.90;;;3.75;100.00;97911.03;5032337;28;20442;-79
2021/11/30 00:34:44;;;;;;;4.80;2.10;;;3.30;99.90;;;3.72;100.00;97923.44;5040005;28;20508;-79
2021/11/30 00:37:12;;;;;;;4.90;1.90;;;3.20;99.90;;;3.67;100.00;97920.50;5029954;28;20471;-79
2021/11/30 00:39:41;;;;;;;3.47;1.80;;;3.20;99.90;;;3.61;100.00;97921.88;5029549;28;20468;-80
2021/11/30 00:42:10;;;;;;;1.50;1.40;;;3.10;99.90;;;3.65;100.00;97928.38;5025187;28;20489;-79
2021/11/30 00:44:41;;;;;;;3.57;1.83;;;3.20;99.90;;;3.64;100.00;97933.72;5032227;28;20465;-79
2021/11/30 00:47:17;;;;;;;7.07;1.80;;;3.10;99.90;;;3.64;100.00;97931.13;5034703;28;20821;-79
2021/11/30 00:49:47;;;;;;;2.60;1.73;;;3.20;99.90;;;3.63;100.00;97934.66;5030167;28;20483;-79
2021/11/30 00:52:15;;;;;;;5.77;2.30;;;3.10;99.90;;;3.66;100.00;97934.38;5030376;28;20979;-79
2021/11/30 00:54:45;;;;;;;5.93;2.10;;;3.10;99.90;;;3.66;100.00;97932.59;5030297;28;20495;-80
2021/11/30 00:57:14;;;;;;;2.00;1.73;;;3.20;99.90;;;3.67;100.00;97936.00;5025603;28;20964;-79
2021/11/30 00:59:44;;;;;;;2.50;1.77;;;3.10;99.90;;;3.63;100.00;97934.66;5028945;28;20498;-79
2021/11/30 01:02:13;;;;;;;2.10;1.80;;;3.00;99.90;;;3.64;100.00;97936.28;5026204;28;21076;-79
2021/11/30 01:04:42;;;;;;;2.30;2.10;;;3.10;99.90;;;3.57;100.00;97930.91;5022120;28;20550;-79
2021/11/30 01:07:11;;;;;;;4.43;2.33;;;3.10;99.90;;;3.53;100.00;97925.22;5023498;28;20687;-79
2021/11/30 01:09:40;;;;;;;4.40;2.30;;;3.00;99.90;;;3.52;100.00;97909.84;5015049;28;20471;-79
2021/11/30 01:12:10;;;;;;;1.97;1.70;;;2.90;99.90;;;3.54;100.00;97919.06;5013317;28;20463;-79
2021/11/30 01:14:39;;;;;;;3.10;2.10;;;3.00;99.90;;;3.55;100.00;97925.88;5026932;28;21116;-79
2021/11/30 01:17:09;;;;;;;4.90;1.97;;;3.00;99.90;;;3.57;100.00;97922.31;5026992;28;20863;-79
2021/11/30 01:19:38;;;;;;;6.90;2.30;;;3.10;99.90;;;3.56;100.00;97929.25;5011060;28;20576;-79
2021/11/30 01:22:06;;;;;;;4.63;2.03;;;3.10;99.90;;;3.50;100.00;97922.91;5020095;28;20865;-79
2021/11/30 01:24:35;;;;;;;2.80;2.13;;;3.00;99.90;;;3.50;100.00;97935.84;5026685;28;21004;-79
2021/11/30 01:27:04;;;;;;;3.30;2.40;;;3.00;99.90;;;3.51;100.00;97944.38;5021605;28;20516;-78
2021/11/30 01:29:33;;;;;;;3.20;2.30;;;2.90;99.90;;;3.51;100.00;97934.03;5027845;28;20458;-79
2021/11/30 01:32:02;;;;;;;2.30;2.07;;;3.00;99.90;;;3.50;100.00;97941.00;5029918;28;20470;-79
2021/11/30 01:34:32;;;;;;;3.77;2.60;;;3.00;99.90;;;3.50;100.00;97941.00;5024197;28;20529;-79
2021/11/30 01:37:02;;;;;;;2.83;2.17;;;2.90;99.90;;;3.47;100.00;97938.69;5020158;28;21017;-79
2021/11/30 01:39:31;;;;;;;11.23;2.90;;;2.90;99.90;;;3.47;100.00;97937.91;5023949;28;20544;-79
2021/11/30 01:42:00;;;;;;;3.50;2.40;;;2.90;99.90;;;3.49;100.00;97944.53;5014252;28;20463;-79
2021/11/30 01:44:37;;;;;;;4.20;2.20;;;2.90;99.90;;;3.47;100.00;97946.44;5021009;28;20503;-79
2021/11/30 01:47:22;;;;;;;5.67;2.63;;;2.90;99.90;;;3.46;100.00;97937.09;5019110;28;20893;-79
2021/11/30 01:49:53;;;;;;;5.27;2.63;;;2.90;99.90;;;3.45;100.00;97938.03;5031079;28;20479;-79
2021/11/30 01:52:22;;;;;;;3.00;1.90;;;3.00;99.90;;;3.48;100.00;97924.00;5022252;28;20479;-79
2021/11/30 01:54:51;;;;;;;4.87;2.70;;;3.00;99.90;;;3.45;100.00;97930.28;5014978;28;20513;-79
2021/11/30 01:57:23;;;;;;;3.60;2.60;;;3.00;99.90;;;3.42;100.00;97922.81;5021837;28;20980;-79
2021/11/30 01:59:55;;;;;;;5.57;2.43;;;2.90;99.90;;;3.42;100.00;97916.84;5014899;28;20608;-79
2021/11/30 02:02:24;;;;;;;8.27;2.63;;;2.90;99.90;;;3.44;100.00;97920.91;5029053;28;20490;-79
2021/11/30 02:04:54;;;;;;;5.40;2.40;;;3.00;99.90;;;3.45;100.00;97922.53;5028787;28;20455;-79
2021/11/30 02:07:23;;;;;;;2.60;2.40;;;3.00;99.90;;;3.48;100.00;97916.25;5017050;28;20478;-79
2021/11/30 02:09:51;;;;;;;10.23;2.30;;;3.00;99.90;;;3.50;100.00;97919.50;5014918;28;20999;-79
2021/11/30 02:12:20;;;;;;;8.37;2.47;;;3.00;99.90;;;3.48;100.00;97914.47;5025660;28;20451;-79
2021/11/30 02:14:50;;;;;;;12.83;2.50;;;3.00;99.90;;;3.47;100.00;97915.44;5028720;28;20475;-80
2021/11/30 02:17:19;;;;;;;5.87;2.37;;;3.00;99.90;;;3.50;100.00;97902.25;5033161;28;21073;-79
2021/11/30 02:19:56;;;;;;;4.93;2.40;;;3.10;99.90;;;3.53;100.00;97901.94;5032148;28;20519;-79
2021/11/30 02:22:25;;;;;;;4.30;2.53;;;3.10;99.90;;;3.55;100.00;97897.44;5027081;28;20478;-79
2021/11/30 02:24:55;;;;;;;2.50;2.23;;;3.10;99.90;;;3.59;100.00;97887.59;5029952;28;20462;-79
2021/11/30 02:27:24;;;;;;;6.50;2.30;;;3.10;99.90;;;3.57;100.00;97889.53;5031577;28;20451;-79
2021/11/30 02:29:54;;;;;;;4.33;2.13;;;3.00;99.90;;;3.57;100.00;97883.56;5033711;28;20450;-79
2021/11/30 02:32:22;;;;;;;3.77;2.20;;;3.10;99.90;;;3.63;100.00;97886.34;5027540;28;20479;-79
2021/11/30 02:34:52;;;;;;;4.17;2.43;;;3.10;99.90;;;3.57;100.00;97888.72;5033278;28;20450;-80
2021/11/30 02:37:25;;;;;;;16.03;2.80;;;3.20;99.90;;;3.62;100.00;97902.00;5031484;28;21024;-79
2021/11/30 02:39:54;;;;;;;2.80;2.37;;;3.20;99.90;;;3.60;100.00;97906.53;5032144;28;20505;-79
2021/11/30 02:42:23;;;;;;;6.60;2.47;;;3.10;99.90;;;3.58;100.00;97908.41;5031007;28;20463;-79
2021/11/30 02:44:51;;;;;;;4.77;2.50;;;3.10;99.90;;;3.55;100.00;97900.00;5031385;28;20461;-79
2021/11/30 02:47:20;;;;;;;3.53;1.77;;;3.10;99.90;;;3.57;100.00;97904.22;5030771;28;20556;-79
2021/11/30 02:49:48;;;;;;;2.30;1.93;;;3.10;99.90;;;3.58;100.00;97903.25;5031138;28;20893;-79
2021/11/30 02:52:20;;;;;;;2.43;2.07;;;3.20;99.90;;;3.57;100.00;97888.72;5032277;28;20446;-79
2021/11/30 02:54:53;;;;;;;3.80;2.40;;;3.10;99.90;;;3.61;100.00;97884.88;5030983;28;20445;-79
2021/11/30 02:57:24;;;;;;;6.77;2.37;;;3.10;99.90;;;3.61;100.00;97884.88;5031748;28;20460;-79
2021/11/30 02:59:55;;;;;;;1.90;1.70;;;3.10;99.90;;;3.61;100.00;97877.91;5027228;28;20585;-79
2021/11/30 03:02:27;;;;;;;2.20;2.00;;;3.20;99.90;;;3.60;100.00;97868.56;5031966;28;20454;-79
2021/11/30 03:04:59;;;;;;;1.80;1.70;;;3.00;99.90;;;3.64;100.00;97869.91;5030261;28;20457;-79
2021/11/30 03:07:36;;;;;;;1.90;1.80;;;3.20;99.90;;;3.68;100.00;97852.31;5030134;28;20450;-79
2021/11/30 03:10:07;;;;;;;2.83;2.10;;;3.20;99.90;;;3.69;100.00;97846.16;5021918;28;20451;-79
2021/11/30 03:12:37;;;;;;;3.33;2.30;;;3.20;99.90;;;3.65;100.00;97843.06;5034073;28;20862;-79
2021/11/30 03:15:12;;;;;;;11.80;2.70;;;3.10;99.90;;;3.67;100.00;97837.75;5032803;28;20492;-79
2021/11/30 03:17:41;;;;;;;2.03;1.73;;;3.20;99.90;;;3.65;100.00;97824.16;5024242;28;20455;-79
2021/11/30 03:20:11;;;;;;;5.60;2.50;;;3.20;99.90;;;3.59;100.00;97835.09;5034129;28;20531;-79
2021/11/30 03:22:42;;;;;;;5.17;2.90;;;3.10;99.90;;;3.58;100.00;97828.28;5029523;28;20515;-79
2021/11/30 03:25:12;;;;;;;2.60;2.03;;;3.10;99.90;;;3.62;100.00;97824.44;5032306;28;20531;-79
2021/11/30 03:27:42;;;;;;;5.87;3.30;;;3.00;99.90;;;3.63;100.00;97818.34;5031537;28;20452;-79
2021/11/30 03:30:12;;;;;;;7.50;3.57;;;3.10;99.90;;;3.55;100.00;97819.06;5033038;28;20488;-79
2021/11/30 03:35:27;;;;;;;3.90;2.90;;;3.00;99.90;;;3.55;100.00;97809.56;5022766;28;20513;-79
2021/11/30 03:37:57;;;;;;;5.07;3.13;;;3.10;99.90;;;3.56;100.00;97807.78;5033655;28;20453;-79
2021/11/30 03:40:26;;;;;;;4.30;3.50;;;3.10;99.90;;;3.51;100.00;97808.22;5031199;28;20584;-79
2021/11/30 03:42:55;;;;;;;6.03;3.40;;;3.00;99.90;;;3.51;100.00;97800.47;5031547;28;20540;-80
2021/11/30 03:45:23;;;;;;;4.57;3.10;;;3.00;99.90;;;3.50;100.00;97804.03;5026257;28;20470;-79
2021/11/30 03:47:52;;;;;;;10.03;3.33;;;3.00;99.90;;;3.48;100.00;97808.50;5027145;28;20486;-79
2021/11/30 03:50:20;;;;;;;4.83;3.67;;;3.00;99.90;;;3.45;100.00;97829.50;5021586;28;20504;-79
2021/11/30 03:52:49;;;;;;;7.47;3.60;;;3.00;99.90;;;3.42;100.00;97806.53;5025686;28;20466;-80
2021/11/30 03:55:19;;;;;;;4.73;3.47;;;3.00;99.90;;;3.40;100.00;97816.19;5024205;28;20495;-79
2021/11/30 03:57:59;;;;;;;3.60;3.27;;;3.00;99.90;;;3.37;100.00;97800.97;5027111;28;20466;-80
2021/11/30 04:00:29;;;;;;;8.23;3.40;;;2.90;99.90;;;3.34;100.00;97810.81;5025506;28;20496;-79
2021/11/30 04:02:57;;;;;;;5.83;4.00;;;2.90;99.90;;;3.30;100.00;97799.13;5024373;28;20978;-79
2021/11/30 04:05:26;;;;;;;4.83;3.53;;;2.80;99.90;;;3.33;100.00;97798.88;5032151;28;20459;-79
2021/11/30 04:07:55;;;;;;;5.10;3.33;;;2.90;99.90;;;3.29;100.00;97793.19;5026443;28;20462;-80
2021/11/30 04:10:26;;;;;;;8.13;3.93;;;2.90;99.90;;;3.25;100.00;97798.78;5025086;28;20465;-79
2021/11/30 04:12:54;;;;;;;4.77;3.63;;;2.80;99.90;;;3.19;100.00;97782.09;5028685;28;20460;-81
2021/11/30 04:15:24;;;;;;;4.43;3.47;;;2.80;99.90;;;3.20;100.00;97775.16;5033785;28;20486;-79
2021/11/30 04:17:53;;;;;;;4.63;3.60;;;2.80;99.90;;;3.14;100.00;97758.47;5031524;28;20500;-79
2021/11/30 04:20:21;;;;;;;8.10;3.77;;;2.70;99.90;;;3.12;100.00;97763.00;5028059;28;20587;-80
2021/11/30 04:22:50;;;;;;;3.53;3.23;;;2.70;99.90;;;3.11;100.00;97769.09;5020461;28;21030;-79
2021/11/30 04:25:18;;;;;;;3.90;2.90;;;2.70;99.90;;;3.08;100.00;97768.59;5028787;28;20495;-80
2021/11/30 04:27:48;;;;;;;29.80;14.10;;;2.70;99.90;;;3.02;100.00;97762.22;5029392;28;20462;-79
2021/11/30 04:30:17;;;;;;;3.43;2.33;;;2.60;99.90;;;3.00;100.00;97741.72;5032936;28;20469;-78
2021/11/30 04:32:46;;;;;;;3.73;2.87;;;2.50;99.90;;;2.93;100.00;97745.03;5028325;28;20450;-80
2021/11/30 04:35:14;;;;;;;5.67;4.10;;;2.50;99.90;;;2.89;100.00;97721.28;5026823;28;20451;-82
2021/11/30 04:37:43;;;;;;;4.73;2.97;;;2.50;99.90;;;2.90;100.00;97710.00;5020731;28;20475;-78
2021/11/30 04:40:15;;;;;;;2.70;2.50;;;2.50;99.90;;;2.92;100.00;97704.66;5028458;28;20494;-79
2021/11/30 04:42:46;;;;;;;2.97;2.67;;;2.50;99.90;;;2.83;100.00;97708.16;5026579;28;20611;-78
2021/11/30 04:45:23;;;;;;;3.33;3.03;;;2.30;99.90;;;2.86;100.00;97698.34;5020137;28;20463;-78
2021/11/30 04:47:55;;;;;;;2.63;2.43;;;2.40;99.90;;;2.85;100.00;97695.91;5029215;28;20490;-78
2021/11/30 04:50:27;;;;;;;2.83;2.63;;;2.30;99.90;;;2.88;100.00;97699.00;5023600;28;20480;-78
2021/11/30 04:52:58;;;;;;;5.97;3.00;;;2.40;99.90;;;2.87;100.00;97688.84;5024849;28;20462;-78
2021/11/30 04:55:29;;;;;;;2.17;1.97;;;2.40;99.90;;;2.87;100.00;97686.25;5030196;28;20454;-78
2021/11/30 04:58:01;;;;;;;4.43;2.57;;;2.40;99.90;;;2.85;100.00;97682.97;5017936;28;20450;-78
2021/11/30 05:00:33;;;;;;;2.83;2.50;;;2.40;99.90;;;2.82;100.00;97691.03;5028696;28;20501;-78
2021/11/30 05:03:02;;;;;;;6.80;2.90;;;2.40;99.90;;;2.83;100.00;97672.00;5037886;28;20453;-78
2021/11/30 05:05:31;;;;;;;2.63;2.43;;;2.40;99.90;;;2.82;100.00;97678.13;5030858;28;20458;-79
2021/11/30 05:08:00;;;;;;;43.03;20.10;;;2.40;99.90;;;2.79;100.00;97676.66;5017959;28;20934;-80
2021/11/30 05:10:29;;;;;;;2.47;2.10;;;2.40;99.90;;;2.80;100.00;97683.44;5030669;28;20501;-79
2021/11/30 05:12:58;;;;;;;2.13;1.73;;;2.40;99.90;;;2.81;100.00;97673.94;5035911;28;20494;-79
2021/11/30 05:15:27;;;;;;;3.30;2.80;;;2.30;99.90;;;2.83;100.00;97688.31;5027530;28;20841;-79
2021/11/30 05:17:57;;;;;;;1.90;1.80;;;2.40;99.90;;;2.77;100.00;97677.75;5024989;28;20516;-76
2021/11/30 05:20:26;;;;;;;8.87;4.83;;;2.30;99.90;;;2.78;100.00;97679.38;5025107;28;20509;-78
2021/11/30 05:22:54;;;;;;;2.10;1.90;;;2.30;99.90;;;2.77;100.00;97672.59;5027189;28;20484;-76
2021/11/30 05:25:25;;;;;;;1.30;1.20;;;2.30;99.90;;;2.72;100.00;97665.28;5027935;28;20470;-76
2021/11/30 05:27:54;;;;;;;4.20;3.80;;;2.30;99.90;;;2.70;100.00;97680.13;5031305;28;20854;-78
2021/11/30 05:30:23;;;;;;;1.87;1.77;;;2.30;99.90;;;2.65;100.00;97671.19;5031486;28;21028;-76
2021/11/30 05:32:52;;;;;;;1.60;1.50;;;2.20;99.90;;;2.67;100.00;97667.53;5029788;28;20459;-76
2021/11/30 05:35:22;;;;;;;1.53;1.43;;;2.30;99.90;;;2.66;100.00;97676.22;5027594;28;20447;-77
2021/11/30 05:37:55;;;;;;;2.07;1.70;;;2.20;99.90;;;2.64;100.00;97667.00;5028806;28;20460;-78
2021/11/30 05:40:24;;;;;;;3.50;1.63;;;2.20;99.90;;;2.66;100.00;97665.06;5024522;28;20491;-77
2021/11/30 05:42:53;;;;;;;1.80;1.70;;;2.20;99.90;;;2.59;100.00;97657.09;5029887;28;20527;-78
2021/11/30 05:45:22;;;;;;;1.97;1.80;;;2.10;99.90;;;2.63;100.00;97666.19;5021840;28;20879;-78
2021/11/30 05:47:52;;;;;;;2.17;1.80;;;2.20;99.90;;;2.59;100.00;97675.19;5030546;28;20455;-78
2021/11/30 05:50:22;;;;;;;4.00;1.77;;;2.10;99.90;;;2.61;100.00;97667.28;5022084;28;20483;-78
2021/11/30 05:52:51;;;;;;;2.70;1.63;;;2.20;99.90;;;2.59;100.00;97669.19;5026664;28;20458;-78
2021/11/30 05:55:19;;;;;;;1.70;1.60;;;2.10;99.90;;;2.60;100.00;97666.47;5029365;28;20504;-77
2021/11/30 05:57:48;;;;;;;2.47;1.90;;;2.20;99.90;;;2.63;100.00;97660.22;5026954;28;20512;-77
2021/11/30 06:00:19;;;;;;;1.97;1.87;;;2.20;99.90;;;2.63;100.00;97655.88;5022800;28;20490;-78
2021/11/30 06:05:41;;;;;;;1.53;1.43;;;2.20;99.90;;;2.65;100.00;97643.63;5026605;28;21010;-78
2021/11/30 06:08:10;;;;;;;1.97;1.60;;;2.20;99.90;;;2.60;100.00;97655.34;5038242;28;20448;-78
2021/11/30 06:10:39;;;;;;;1.50;1.40;;;2.10;99.90;;;2.61;100.00;97650.03;5032961;28;20466;-78
2021/11/30 06:13:10;;;;;;;1.73;1.63;;;2.20;99.90;;;2.60;100.00;97650.19;5043857;28;20859;-78
2021/11/30 06:15:40;;;;;;;2.10;1.90;;;2.20;99.90;;;2.63;100.00;97642.16;5041770;28;20461;-77
2021/11/30 06:18:08;;;;;;;2.03;1.83;;;2.20;99.90;;;2.57;100.00;97632.41;5042855;28;20456;-78
2021/11/30 06:20:39;;;;;;;3.23;1.83;;;2.10;99.90;;;2.56;100.00;97654.00;5040374;28;20953;-77
2021/11/30 06:23:08;;;;;;;1.93;1.60;;;2.10;99.90;;;2.61;100.00;97644.03;5031251;28;20476;-78
2021/11/30 06:25:36;;;;;;;2.10;1.60;;;2.10;99.90;;;2.56;100.00;97639.34;5039453;28;20446;-78
2021/11/30 06:28:06;;;;;;;1.83;1.60;;;2.10;99.90;;;2.59;100.00;97639.03;5044778;28;20853;-78
2021/11/30 06:30:35;;;;;;;1.53;1.43;;;2.20;99.90;;;2.53;100.00;97635.25;5040322;28;20457;-77
2021/11/30 06:33:03;;;;;;;1.60;1.50;;;2.00;99.90;;;2.52;100.00;97633.66;5039746;28;20851;-78
2021/11/30 06:35:32;;;;;;;1.50;1.40;;;2.10;99.90;;;2.48;100.00;97637.50;5038800;28;20460;-78
2021/11/30 06:38:03;;;;;;;2.80;1.70;;;2.00;99.90;;;2.53;100.00;97635.25;5039848;28;20460;-78
2021/11/30 06:40:32;;;;;;;1.30;1.20;;;2.10;99.90;;;2.46;100.00;97644.53;5039883;28;20449;-78
2021/11/30 06:43:01;;;;;;;1.23;1.13;;;2.00;99.90;;;2.46;100.00;97652.28;5035250;28;20523;-78
2021/11/30 06:45:29;;;;;;;1.67;1.57;;;2.00;99.90;;;2.45;100.00;97635.22;5040701;28;20794;-78
2021/11/30 06:47:58;;;;;;;1.73;1.50;;;2.00;99.90;;;2.46;100.00;97649.72;5038882;28;20521;-78
2021/11/30 06:50:27;;;;;;;1.47;1.37;;;2.00;99.90;;;2.47;100.00;97646.19;5043467;28;21015;-77
2021/11/30 06:52:56;;;;;;;1.40;1.30;;;2.00;99.90;;;2.48;100.00;97645.22;5039179;28;20886;-77
2021/11/30 06:55:26;;;;;;;1.30;1.20;;;2.10;99.90;;;2.49;100.00;97639.13;5040237;28;20478;-77
2021/11/30 06:57:58;;;;;;;1.30;1.10;;;2.10;99.90;;;2.47;100.00;97638.44;5035717;28;20523;-78
2021/11/30 07:00:27;;;;;;;2.40;2.00;;;2.10;99.90;;;2.49;100.00;97623.66;5042642;28;20453;-77
2021/11/30 07:02:57;;;;;;;1.30;1.10;;;2.10;99.90;;;2.50;100.00;97643.31;5039053;28;20430;-78
2021/11/30 07:05:29;;;;;;;1.57;1.30;;;2.10;99.90;;;2.48;100.00;97647.81;5040979;28;20551;-78
2021/11/30 07:08:12;;;;;;;1.50;1.40;;;2.00;99.90;;;2.52;100.00;97646.56;5039359;28;20999;-78
2021/11/30 07:10:51;;;;;;;1.50;1.40;;;2.10;99.90;;;2.49;100.00;97635.72;5029087;28;20449;-78
2021/11/30 07:13:25;;;;;;;1.20;1.10;;;2.10;99.90;;;2.46;100.00;97639.38;5042847;28;20938;-78
2021/11/30 07:15:57;;;;;;;1.13;1.07;;;2.00;99.90;;;2.49;100.00;97641.69;5035781;28;20495;-78
2021/11/30 07:18:27;;;;;;;1.00;1.00;;;2.10;99.90;;;2.54;100.00;97639.47;5037798;28;20462;-78
2021/11/30 07:20:57;;;;;;;1.47;1.20;;;2.10;99.90;;;2.60;100.00;97639.88;5040187;28;21017;-78
2021/11/30 07:23:26;;;;;;;1.40;1.10;;;2.10;99.90;;;2.65;100.00;97647.97;5040543;28;20885;-78
2021/11/30 07:25:58;;;;;;;1.00;0.90;;;2.20;99.90;;;2.62;100.00;97648.25;5041527;28;20503;-78
2021/11/30 07:28:31;;;;;;;1.03;0.90;;;2.10;99.90;;;2.65;100.00;97653.13;5041306;28;20450;-78
2021/11/30 07:31:05;;;;;;;1.03;0.97;;;2.20;99.90;;;2.61;100.00;97673.25;5042632;28;20945;-78
2021/11/30 07:33:37;;;;;;;0.90;0.90;;;2.20;99.90;;;2.57;100.00;97658.22;5043722;28;20457;-78
2021/11/30 07:36:09;;;;;;;1.00;0.90;;;2.10;99.90;;;2.61;100.00;97650.03;5050564;28;20456;-78
2021/11/30 07:38:38;;;;;;;0.90;0.90;;;2.10;99.90;;;2.67;100.00;97662.34;5040829;28;20938;-78
2021/11/30 07:41:10;;;;;;;1.10;1.00;;;2.20;99.90;;;2.72;100.00;97639.47;5042155;28;20454;-78
2021/11/30 07:43:39;;;;;;;0.90;0.90;;;2.30;99.90;;;2.68;100.00;97633.00;5047036;28;20516;-78
2021/11/30 07:46:08;;;;;;;0.97;0.97;;;2.20;99.90;;;2.67;100.00;97641.72;5043711;28;20522;-78
2021/11/30 07:48:37;;;;;;;1.03;0.93;;;2.20;99.90;;;2.65;100.00;97645.38;5046321;28;20520;-78
2021/11/30 07:51:08;;;;;;;0.93;0.93;;;2.10;99.90;;;2.69;100.00;97634.63;5043498;28;20441;-79
2021/11/30 07:53:41;;;;;;;0.70;0.70;;;2.20;99.90;;;2.70;100.00;97646.56;5049009;28;20448;-78
2021/11/30 07:56:11;;;;;;;1.73;0.90;;;2.30;99.90;;;2.68;100.00;97642.50;5044797;28;20973;-77
2021/11/30 07:58:40;;;;;;;1.10;1.00;;;2.20;99.90;;;2.64;100.00;97647.13;5037081;28;20452;-78
2021/11/30 08:01:10;;;;;;;1.10;1.00;;;2.20;99.90;;;2.69;100.00;97641.53;5037461;28;20499;-78
2021/11/30 08:03:38;;;;;;;1.00;1.00;;;2.20;99.90;;;2.65;100.00;97640.22;5049644;28;20884;-78
2021/11/30 08:06:07;;;;;;;0.90;0.90;;;2.10;99.90;;;2.69;100.00;97638.97;5033400;28;20480;-78
2021/11/30 08:08:36;;;;;;;0.80;0.80;;;2.20;99.90;;;2.74;100.00;97642.72;5043224;28;20453;-78
2021/11/30 08:11:04;;;;;;;1.10;1.00;;;2.30;99.90;;;2.73;100.00;97637.72;5033708;28;20454;-78
2021/11/30 08:13:34;;;;;;;0.90;0.90;;;2.20;99.90;;;2.71;100.00;97621.56;5039006;28;20458;-78
2021/11/30 08:16:04;;;;;;;1.03;1.00;;;2.20;99.90;;;2.71;100.00;97640.44;5046126;28;20445;-78
2021/11/30 08:18:32;;;;;;;3.10;0.97;;;2.20;99.90;;;2.74;100.00;97636.75;5046316;28;20499;-78
2021/11/30 08:21:01;;;;;;;1.00;0.90;;;2.30;99.90;;;2.78;100.00;97618.22;5039821;28;20507;-78
2021/11/30 08:23:30;;;;;;;0.80;0.80;;;2.30;99.90;;;2.78;100.00;97638.88;5042476;28;20496;-78
2021/11/30 08:25:58;;;;;;;0.97;0.97;;;2.40;99.90;;;2.82;100.00;97624.72;5041707;28;20503;-78
2021/11/30 08:28:27;;;;;;;0.80;0.80;;;2.40;99.90;;;2.87;100.00;97625.09;5044313;28;20453;-78
2021/11/30 08:30:57;;;;;;;0.80;0.80;;;2.40;99.90;;;2.81;100.00;97637.78;5043451;28;20510;-78
2021/11/30 08:33:26;;;;;;;0.93;0.90;;;2.30;99.90;;;2.86;100.00;97626.06;5044949;28;20464;-78
2021/11/30 08:35:56;;;;;;;0.77;0.77;;;2.40;99.90;;;2.86;100.00;97625.22;5048264;28;20455;-78
2021/11/30 08:38:25;;;;;;;1.00;1.00;;;2.40;99.90;;;2.87;100.00;97648.34;5040517;28;20469;-78
2021/11/30 08:40:55;;;;;;;0.80;0.80;;;2.40;99.90;;;2.95;100.00;97630.31;5042466;28;20472;-78
2021/11/30 08:43:24;;;;;;;2.80;1.00;;;2.50;99.90;;;2.94;100.00;97620.16;5034732;28;20513;-78
2021/11/30 08:45:54;;;;;;;1.43;1.00;;;2.50;99.90;;;2.92;100.00;97634.97;5042803;28;20522;-78
2021/11/30 08:48:26;;;;;;;1.10;1.00;;;2.40;99.90;;;2.99;100.00;97621.31;5035565;28;20488;-78
2021/11/30 08:50:58;;;;;;;0.90;0.90;;;2.50;99.90;;;3.03;100.00;97619.22;5043832;28;20457;-78
2021/11/30 08:53:27;;;;;;;0.80;0.80;;;2.50;99.90;;;3.01;100.00;97619.41;5039357;28;20461;-78
2021/11/30 08:55:56;;;;;;;0.93;0.93;;;2.60;99.90;;;3.00;100.00;97614.38;5035960;28;20512;-78
2021/11/30 08:58:24;;;;;;;0.93;0.90;;;2.50;99.90;;;3.08;100.00;97614.44;5037850;28;21005;-77
2021/11/30 09:00:53;;;;;;;1.00;0.90;;;2.60;99.90;;;3.11;100.00;97619.31;5040361;28;20481;-78
2021/11/30 09:03:24;;;;;;;1.50;1.00;;;2.60;99.90;;;3.07;100.00;97612.81;5043988;28;20507;-78
2021/11/30 09:05:53;;;;;;;0.90;0.90;;;2.60;99.90;;;3.11;100.00;97619.31;5039794;28;20457;-78
2021/11/30 09:08:21;;;;;;;1.63;1.53;;;2.60;99.90;;;3.10;100.00;97624.59;5038616;28;20516;-77
2021/11/30 09:10:51;;;;;;;1.47;1.00;;;2.60;99.90;;;3.16;100.00;97619.66;5030372;28;20488;-78
2021/11/30 09:13:20;;;;;;;1.10;1.00;;;2.70;99.90;;;3.17;100.00;97613.53;5036919;28;20543;-78
2021/11/30 09:15:49;;;;;;;1.20;1.10;;;2.60;99.90;;;3.16;100.00;97624.81;5041164;28;20474;-77
2021/11/30 09:18:17;;;;;;;1.30;1.20;;;2.70;99.90;;;3.21;100.00;97620.03;5037461;28;20858;-78
2021/11/30 09:20:48;;;;;;;1.27;1.20;;;2.70;99.90;;;3.26;100.00;97609.25;5040732;28;20527;-78
2021/11/30 09:23:16;;;;;;;1.90;1.40;;;2.70;99.90;;;3.26;100.00;97602.31;5041398;28;20555;-77
2021/11/30 09:25:45;;;;;;;1.50;1.40;;;2.80;99.90;;;3.22;100.00;97621.66;5040479;28;20449;-78
2021/11/30 09:28:14;;;;;;;1.53;1.43;;;2.70;99.90;;;3.27;100.00;97623.75;5036880;28;20481;-78
2021/11/30 09:30:43;;;;;;;2.00;1.70;;;2.80;99.90;;;3.31;100.00;97612.97;5035863;28;20453;-78
2021/11/30 09:33:16;;;;;;;2.10;1.80;;;2.90;99.90;;;3.26;100.00;97612.63;5033523;28;20457;-78
2021/11/30 09:35:46;;;;;;;1.83;1.20;;;2.70;99.90;;;3.29;100.00;97622.66;5042478;28;20454;-78
2021/11/30 09:38:15;;;;;;;1.60;1.50;;;2.80;99.90;;;3.30;100.00;97613.94;5040231;28;20460;-78
2021/11/30 09:40:44;;;;;;;2.67;1.90;;;2.80;99.90;;;3.34;100.00;97611.84;5043769;28;20967;-78
2021/11/30 09:43:29;;;;;;;1.70;1.60;;;2.90;99.90;;;3.34;100.00;97617.03;5032774;28;20580;-78
2021/11/30 09:45:59;;;;;;;1.60;1.40;;;2.80;99.90;;;3.33;100.00;97620.59;5040137;28;20462;-78
2021/11/30 09:48:30;;;;;;;3.60;1.60;;;2.80;99.90;;;3.34;100.00;97612.66;5039247;28;20462;-78
2021/11/30 09:51:02;;;;;;;1.87;1.40;;;2.90;99.90;;;3.39;100.00;97620.78;5034531;28;20449;-78
2021/11/30 09:53:31;;;;;;;2.80;2.10;;;2.90;99.90;;;3.42;100.00;97607.56;5036746;28;20523;-78
2021/11/30 09:55:59;;;;;;;1.70;1.60;;;3.00;99.90;;;3.46;100.00;97605.47;5036693;28;21008;-78
2021/11/30 09:58:29;;;;;;;2.70;1.63;;;3.00;99.90;;;3.48;100.00;97609.53;5040687;28;20442;-78
2021/11/30 10:01:01;;;;;;;1.80;1.70;;;3.00;99.90;;;3.51;100.00;97606.63;5036027;28;20458;-77
2021/11/30 10:03:30;;;;;;;2.33;1.90;;;3.00;99.90;;;3.55;100.00;97607.13;5036242;28;20581;-78
2021/11/30 10:06:01;;;;;;;1.70;1.60;;;3.10;99.90;;;3.58;100.00;97608.59;5034580;28;20453;-78
2021/11/30 10:08:36;;;;;;;2.07;1.93;;;3.10;99.90;;;3.55;100.00;97602.78;5032472;28;20970;-78
2021/11/30 10:11:12;;;;;;;2.23;1.70;;;3.20;99.90;;;3.57;100.00;97615.56;5033655;28;20454;-77
2021/11/30 10:13:47;;;;;;;1.50;1.40;;;3.10;99.90;;;3.59;100.00;97592.94;5043833;28;21039;-78
2021/11/30 10:16:16;;;;;;;1.40;1.30;;;3.20;99.90;;;3.59;100.00;97602.47;5042658;28;20445;-78
2021/11/30 10:18:48;;;;;;;1.63;1.53;;;3.20;99.90;;;3.61;100.00;97601.34;5041190;28;20446;-78
2021/11/30 10:21:23;;;;;;;2.17;1.60;;;3.20;99.90;;;3.61;100.00;97600.56;5038459;28;20507;-78
2021/11/30 10:23:56;;;;;;;1.43;1.33;;;3.10;99.90;;;3.63;100.00;97593.44;5036849;28;20997;-78
2021/11/30 10:26:27;;;;;;;1.67;1.57;;;3.10;99.90;;;3.68;100.00;97596.38;5040012;28;20446;-77
2021/11/30 10:28:59;;;;;;;1.30;1.20;;;3.20;99.90;;;3.65;100.00;97589.72;5033243;28;20513;-78
2021/11/30 10:31:33;;;;;;;1.30;1.20;;;3.20;99.90;;;3.68;100.00;97599.75;5032739;28;20446;-78
2021/11/30 10:34:12;;;;;;;1.50;1.40;;;3.20;99.90;;;3.69;100.00;97606.56;5039467;28;20441;-78
2021/11/30 10:36:49;;;;;;;2.03;1.43;;;3.20;99.90;;;3.70;100.00;97595.25;5038903;28;20854;-77
2021/11/30 10:39:22;;;;;;;1.37;1.27;;;3.20;99.90;;;3.74;100.00;97601.75;5035298;28;20449;-78
2021/11/30 10:41:52;;;;;;;2.03;1.30;;;3.20;99.90;;;3.78;100.00;97597.06;5032046;28;20482;-78
2021/11/30 10:44:38;;;;;;;1.50;1.40;;;3.30;99.90;;;3.74;100.00;97596.56;5038235;28;20571;-78
2021/11/30 10:47:13;;;;;;;1.53;1.13;;;3.20;99.90;;;3.78;100.00;97595.31;5035425;28;20457;-79